createdAt,value
2023-04-03T00:01:57.147Z,94027.38
2023-04-03T00:03:58.627Z,94018.97
2023-04-03T00:06:00.158Z,94012.88
2023-04-03T00:08:03.022Z,94019.13
2023-04-03T00:10:04.767Z,94013.50
2023-04-03T00:12:06.319Z,94009.53
2023-04-03T00:14:07.869Z,94008.56
2023-04-03T00:16:09.914Z,94006.13
2023-04-03T00:18:11.452Z,94000.41
2023-04-03T00:20:12.956Z,94001.59
2023-04-03T00:22:14.577Z,94000.59
2023-04-03T00:24:16.232Z,94002.03
2023-04-03T00:26:17.735Z,94008.94
2023-04-03T00:28:19.424Z,94001.63
2023-04-03T00:30:21.455Z,94000.44
2023-04-03T00:32:23.125Z,94006.22
2023-04-03T00:34:24.725Z,94000.69
2023-04-03T00:36:26.326Z,94004.84
2023-04-03T00:38:27.790Z,94011.06
2023-04-03T00:40:29.291Z,94009.31
2023-04-03T00:42:30.926Z,94010.06
2023-04-03T00:44:35.215Z,94015.41
2023-04-03T00:46:36.738Z,94012.34
2023-04-03T00:48:50.181Z,94014.84
2023-04-03T00:50:51.812Z,94010.09
2023-04-03T00:52:53.353Z,94008.00
2023-04-03T00:54:56.099Z,94010.38
2023-04-03T00:56:57.681Z,94017.41
2023-04-03T00:59:18.213Z,94022.22
2023-04-03T01:01:21.145Z,94021.00
2023-04-03T01:03:22.989Z,94028.53
2023-04-03T01:05:24.476Z,94022.84
2023-04-03T01:07:30.376Z,94019.75
2023-04-03T01:09:31.873Z,94023.00
2023-04-03T01:11:33.369Z,94016.31
2023-04-03T01:13:34.862Z,94020.56
2023-04-03T01:15:36.444Z,94018.03
2023-04-03T01:17:42.076Z,94023.03
2023-04-03T01:19:43.614Z,94016.91
2023-04-03T01:22:08.521Z,94016.50
2023-04-03T01:24:10.010Z,94015.06
2023-04-03T01:26:12.754Z,94023.47
2023-04-03T01:28:16.579Z,94004.88
2023-04-03T01:30:19.158Z,94020.09
2023-04-03T01:32:20.828Z,94025.03
2023-04-03T01:34:22.409Z,94019.91
2023-04-03T01:36:28.260Z,94021.56
2023-04-03T01:38:29.873Z,94018.84
2023-04-03T01:40:31.628Z,94014.47
2023-04-03T01:42:33.090Z,94015.28
2023-04-03T01:44:34.618Z,94021.47
2023-04-03T01:46:36.612Z,94019.34
2023-04-03T01:48:38.222Z,94014.47
2023-04-03T01:50:39.856Z,94020.00
2023-04-03T01:52:41.434Z,94019.69
2023-04-03T01:54:42.987Z,94027.69
2023-04-03T01:56:44.520Z,94030.44
2023-04-03T01:58:46.121Z,94020.81
2023-04-03T02:00:47.737Z,94022.13
2023-04-03T02:02:49.314Z,94025.72
2023-04-03T02:04:50.925Z,94020.19
2023-04-03T02:06:52.583Z,94016.56
2023-04-03T02:08:54.380Z,94013.59
2023-04-03T02:10:55.880Z,94023.38
2023-04-03T02:12:57.418Z,94017.00
2023-04-03T02:14:58.871Z,94019.59
2023-04-03T02:17:01.895Z,94018.63
2023-04-03T02:19:03.492Z,94024.34
2023-04-03T02:21:05.031Z,94029.25
2023-04-03T02:23:06.940Z,94018.97
2023-04-03T02:25:08.596Z,94012.66
2023-04-03T02:27:10.189Z,94006.78
2023-04-03T02:29:11.688Z,94007.44
2023-04-03T02:31:13.287Z,94002.53
2023-04-03T02:33:14.857Z,93997.16
2023-04-03T02:35:16.408Z,94006.94
2023-04-03T02:37:17.961Z,94001.91
2023-04-03T02:39:19.530Z,94000.41
2023-04-03T02:41:22.197Z,93997.00
2023-04-03T02:43:23.726Z,93993.06
2023-04-03T02:45:25.424Z,93996.00
2023-04-03T02:47:27.560Z,93996.66
2023-04-03T02:49:29.043Z,93994.34
2023-04-03T02:51:30.556Z,93994.50
2023-04-03T02:53:32.048Z,93992.72
2023-04-03T02:55:33.453Z,93986.06
2023-04-03T02:57:34.956Z,93989.47
2023-04-03T02:59:37.299Z,93982.13
2023-04-03T03:01:39.063Z,93984.59
2023-04-03T03:03:40.759Z,93978.19
2023-04-03T03:05:42.243Z,93982.59
2023-04-03T03:07:43.656Z,93978.38
2023-04-03T03:09:45.145Z,93981.47
2023-04-03T03:11:46.610Z,93980.66
2023-04-03T03:13:48.112Z,93984.25
2023-04-03T03:15:49.657Z,93977.06
2023-04-03T03:17:51.470Z,93971.84
2023-04-03T03:19:52.960Z,93981.78
2023-04-03T03:21:54.451Z,93972.97
2023-04-03T03:23:55.990Z,93973.78
2023-04-03T03:25:58.145Z,93978.81
2023-04-03T03:27:59.753Z,93973.13
2023-04-03T03:30:01.357Z,93982.56
2023-04-03T03:32:02.928Z,93970.50
2023-04-03T03:34:04.518Z,93969.34
2023-04-03T03:36:06.457Z,93973.78
2023-04-03T03:38:07.959Z,93972.09
2023-04-03T03:40:09.834Z,93979.59
2023-04-03T03:42:12.261Z,93984.38
2023-04-03T03:44:15.292Z,93974.72
2023-04-03T03:46:16.910Z,93985.69
2023-04-03T03:48:18.424Z,93980.31
2023-04-03T03:50:22.923Z,93972.00
2023-04-03T03:52:24.364Z,93981.47
2023-04-03T03:54:25.823Z,93983.59
2023-04-03T03:56:27.603Z,93993.09
2023-04-03T03:58:29.122Z,93983.78
2023-04-03T04:00:31.197Z,93987.06
2023-04-03T04:02:32.890Z,93977.41
2023-04-03T04:04:34.561Z,93981.31
2023-04-03T04:06:36.067Z,93982.97
2023-04-03T04:08:37.889Z,93985.59
2023-04-03T04:10:39.367Z,93979.06
2023-04-03T04:12:40.904Z,93988.19
2023-04-03T04:14:42.554Z,93983.63
2023-04-03T04:16:44.112Z,93986.22
2023-04-03T04:18:46.116Z,94000.25
2023-04-03T04:20:47.654Z,93998.81
2023-04-03T04:22:49.252Z,93997.31
2023-04-03T04:24:50.771Z,94000.41
2023-04-03T04:26:52.279Z,93998.59
2023-04-03T04:28:53.799Z,93997.59
2023-04-03T04:30:55.413Z,93993.66
2023-04-03T04:32:57.115Z,93992.38
2023-04-03T04:34:58.775Z,93991.13
2023-04-03T04:37:00.491Z,94013.16
2023-04-03T04:39:01.997Z,94018.22
2023-04-03T04:41:03.533Z,94014.63
2023-04-03T04:43:05.166Z,94013.81
2023-04-03T04:45:06.880Z,94010.06
2023-04-03T04:47:08.472Z,94010.69
2023-04-03T04:49:09.963Z,94012.34
2023-04-03T04:51:11.743Z,94012.66
2023-04-03T04:53:13.262Z,94017.69
2023-04-03T04:55:14.771Z,94024.06
2023-04-03T04:57:16.845Z,94027.97
2023-04-03T04:59:20.680Z,94028.94
2023-04-03T05:01:23.366Z,94025.00
2023-04-03T05:03:24.916Z,94030.59
2023-04-03T05:05:26.512Z,94031.06
2023-04-03T05:07:27.986Z,94031.59
2023-04-03T05:09:29.473Z,94037.47
2023-04-03T05:11:31.125Z,94036.47
2023-04-03T05:13:32.664Z,94042.34
2023-04-03T05:15:34.134Z,94045.63
2023-04-03T05:17:35.774Z,94042.97
2023-04-03T05:19:37.298Z,94054.25
2023-04-03T05:21:38.833Z,94050.81
2023-04-03T05:23:40.449Z,94047.38
2023-04-03T05:25:41.944Z,94047.25
2023-04-03T05:27:43.398Z,94055.09
2023-04-03T05:29:45.428Z,94051.19
2023-04-03T05:31:47.100Z,94042.84
2023-04-03T05:33:48.799Z,94050.50
2023-04-03T05:35:50.657Z,94057.19
2023-04-03T05:37:52.427Z,94041.50
2023-04-03T05:39:53.993Z,94037.59
2023-04-03T05:41:55.698Z,94048.53
2023-04-03T05:43:57.133Z,94047.09
2023-04-03T05:45:58.633Z,94049.19
2023-04-03T05:48:00.231Z,94047.28
2023-04-03T05:50:01.808Z,94042.69
2023-04-03T05:52:03.375Z,94042.69
2023-04-03T05:54:14.121Z,94044.31
2023-04-03T05:56:15.944Z,94034.03
2023-04-03T05:58:17.599Z,94038.09
2023-04-03T06:00:19.287Z,94031.59
2023-04-03T06:02:22.162Z,94034.22
2023-04-03T06:04:23.737Z,94038.78
2023-04-03T06:06:25.691Z,94043.31
2023-04-03T06:08:27.232Z,94030.25
2023-04-03T06:10:28.725Z,94031.13
2023-04-03T06:12:31.004Z,94016.75
2023-04-03T06:14:32.483Z,94021.66
2023-04-03T06:16:34.128Z,94016.72
2023-04-03T06:18:35.703Z,94012.38
2023-04-03T06:20:37.420Z,94008.94
2023-04-03T06:22:39.409Z,94010.59
2023-04-03T06:24:41.272Z,94015.50
2023-04-03T06:26:43.273Z,94022.38
2023-04-03T06:28:44.717Z,94027.97
2023-04-03T06:30:46.234Z,94020.19
2023-04-03T06:32:47.884Z,94019.00
2023-04-03T06:34:49.458Z,94011.47
2023-04-03T06:36:51.695Z,94023.41
2023-04-03T06:38:53.218Z,94029.94
2023-04-03T06:40:55.022Z,94030.09
2023-04-03T06:42:56.522Z,94032.19
2023-04-03T06:44:58.097Z,94037.03
2023-04-03T06:46:59.632Z,94029.63
2023-04-03T06:49:01.574Z,94033.38
2023-04-03T06:51:03.140Z,94030.47
2023-04-03T06:53:04.796Z,94033.91
2023-04-03T06:55:06.415Z,94037.75
2023-04-03T06:57:08.200Z,94035.25
2023-04-03T06:59:10.350Z,94045.56
2023-04-03T07:01:13.149Z,94042.81
2023-04-03T07:03:14.686Z,94040.28
2023-04-03T07:05:16.191Z,94040.22
2023-04-03T07:07:18.526Z,94038.94
2023-04-03T07:09:20.147Z,94038.75
2023-04-03T07:11:21.788Z,94039.00
2023-04-03T07:13:23.405Z,94036.25
2023-04-03T07:15:25.822Z,94027.72
2023-04-03T07:17:28.003Z,94018.16
2023-04-03T07:19:30.035Z,94019.97
2023-04-03T07:21:31.870Z,94026.47
2023-04-03T07:23:33.375Z,94024.94
2023-04-03T07:25:35.171Z,94013.84
2023-04-03T07:27:36.684Z,94015.56
2023-04-03T07:29:38.522Z,94025.00
2023-04-03T07:31:40.963Z,94024.09
2023-04-03T07:33:42.786Z,94014.31
2023-04-03T07:35:44.426Z,94014.03
2023-04-03T07:37:46.065Z,94014.09
2023-04-03T07:39:47.712Z,94008.47
2023-04-03T07:41:49.204Z,94009.81
2023-04-03T07:43:51.001Z,94003.66
2023-04-03T07:45:52.968Z,93998.69
2023-04-03T07:47:54.556Z,93992.41
2023-04-03T07:49:58.267Z,93987.06
2023-04-03T07:51:59.881Z,93989.50
2023-04-03T07:54:01.386Z,93997.25
2023-04-03T07:56:03.835Z,93996.59
2023-04-03T07:58:05.884Z,93996.97
2023-04-03T08:00:07.891Z,93991.38
2023-04-03T08:02:13.076Z,93982.50
2023-04-03T08:04:15.273Z,93986.84
2023-04-03T08:06:18.789Z,93986.03
2023-04-03T08:08:23.691Z,93983.94
2023-04-03T08:10:25.562Z,93983.34
2023-04-03T08:12:29.509Z,93976.91
2023-04-03T08:14:35.696Z,93977.78
2023-04-03T08:16:37.235Z,93978.97
2023-04-03T08:18:40.009Z,93975.09
2023-04-03T08:20:41.772Z,93974.47
2023-04-03T08:22:43.433Z,93981.06
2023-04-03T08:24:56.211Z,93977.97
2023-04-03T08:27:00.582Z,93975.81
2023-04-03T08:29:02.099Z,93971.03
2023-04-03T08:31:05.518Z,93971.38
2023-04-03T08:33:07.277Z,93974.91
2023-04-03T08:35:09.033Z,93969.22
2023-04-03T08:37:10.612Z,93965.47
2023-04-03T08:39:12.178Z,93957.91
2023-04-03T08:41:32.322Z,93955.09
2023-04-03T08:43:33.801Z,93946.25
2023-04-03T08:45:44.324Z,93951.19
2023-04-03T08:47:48.245Z,93949.97
2023-04-03T08:49:52.556Z,93951.75
2023-04-03T08:51:54.430Z,93948.69
2023-04-03T08:53:56.089Z,93951.81
2023-04-03T08:55:59.071Z,93950.56
2023-04-03T08:58:00.698Z,93944.16
2023-04-03T09:00:05.073Z,93935.19
2023-04-03T09:02:16.245Z,93932.75
2023-04-03T09:04:20.955Z,93932.81
2023-04-03T09:06:23.522Z,93924.75
2023-04-03T09:08:25.071Z,93920.31
2023-04-03T09:10:28.719Z,93925.34
2023-04-03T09:12:35.898Z,93916.63
2023-04-03T09:14:40.047Z,93917.72
2023-04-03T09:16:47.665Z,93903.84
2023-04-03T09:18:50.099Z,93911.31
2023-04-03T09:21:07.172Z,93904.00
2023-04-03T09:23:16.574Z,93908.06
2023-04-03T09:25:18.909Z,93899.69
2023-04-03T09:27:20.874Z,93896.47
2023-04-03T09:29:23.142Z,93893.50
2023-04-03T09:31:26.437Z,93893.84
2023-04-03T09:33:28.213Z,93890.50
2023-04-03T09:35:40.514Z,93888.38
2023-04-03T09:37:49.545Z,93885.56
2023-04-03T09:39:52.284Z,93886.97
2023-04-03T09:41:58.458Z,93884.13
2023-04-03T09:43:59.981Z,93882.38
2023-04-03T09:46:20.898Z,93880.00
2023-04-03T09:48:24.434Z,93877.03
2023-04-03T09:50:26.049Z,93877.66
2023-04-03T09:52:27.873Z,93867.34
2023-04-03T09:54:32.435Z,93879.31
2023-04-03T09:56:35.658Z,93872.03
2023-04-03T09:58:49.673Z,93873.41
2023-04-03T10:00:55.728Z,93864.03
2023-04-03T10:02:58.116Z,93864.06
2023-04-03T10:07:54.771Z,93866.94
2023-04-03T10:10:16.261Z,93864.13
2023-04-03T10:12:17.805Z,93860.28
2023-04-03T10:14:19.361Z,93860.88
2023-04-03T10:16:23.427Z,93861.69
2023-04-03T10:18:39.766Z,93858.63
2023-04-03T10:20:44.225Z,93868.34
2023-04-03T10:22:56.185Z,93858.38
2023-04-03T10:25:01.509Z,93854.53
2023-04-03T10:27:09.489Z,93855.94
2023-04-03T10:29:21.477Z,93849.00
2023-04-03T10:31:40.153Z,93846.41
2023-04-03T10:34:00.774Z,93846.38
2023-04-03T10:36:10.415Z,93840.31
2023-04-03T10:38:24.056Z,93841.13
2023-04-03T10:40:33.509Z,93833.47
2023-04-03T10:42:41.394Z,93831.00
2023-04-03T10:44:55.130Z,93831.66
2023-04-03T10:47:03.898Z,93829.63
2023-04-03T10:49:14.639Z,93824.56
2023-04-03T10:51:19.158Z,93825.00
2023-04-03T10:53:29.642Z,93825.00
2023-04-03T10:55:31.158Z,93827.81
2023-04-03T10:57:32.703Z,93821.13
2023-04-03T10:59:39.915Z,93825.19
2023-04-03T11:01:41.840Z,93829.25
2023-04-03T11:03:45.037Z,93835.94
2023-04-03T11:05:47.914Z,93826.63
2023-04-03T11:07:50.907Z,93833.50
2023-04-03T11:09:53.774Z,93830.06
2023-04-03T11:12:11.520Z,93837.53
2023-04-03T11:14:17.385Z,93845.84
2023-04-03T11:16:23.675Z,93845.00
2023-04-03T11:18:48.463Z,93843.34
2023-04-03T11:21:00.322Z,93846.31
2023-04-03T11:23:03.032Z,93838.16
2023-04-03T11:25:06.610Z,93841.19
2023-04-03T11:27:09.953Z,93835.47
2023-04-03T11:29:20.702Z,93841.50
2023-04-03T11:31:48.847Z,93842.91
2023-04-03T11:33:57.033Z,93836.44
2023-04-03T11:36:00.253Z,93837.44
2023-04-03T11:38:01.731Z,93832.78
2023-04-03T11:40:06.009Z,93829.97
2023-04-03T11:42:22.764Z,93837.22
2023-04-03T11:44:27.240Z,93830.78
2023-04-03T11:46:47.450Z,93833.25
2023-04-03T11:48:50.131Z,93841.69
2023-04-03T11:50:51.640Z,93844.03
2023-04-03T11:52:53.148Z,93843.59
2023-04-03T11:54:55.468Z,93840.78
2023-04-03T11:56:57.017Z,93846.44
2023-04-03T11:59:14.654Z,93842.00
2023-04-03T12:01:36.235Z,93847.47
2023-04-03T12:03:40.960Z,93848.22
2023-04-03T12:05:42.764Z,93849.28
2023-04-03T12:07:44.648Z,93846.66
2023-04-03T12:09:46.147Z,93851.34
2023-04-03T12:11:47.676Z,93848.88
2023-04-03T12:13:58.278Z,93850.22
2023-04-03T12:16:01.064Z,93847.75
2023-04-03T12:18:22.516Z,93840.88
2023-04-03T12:20:42.775Z,93843.00
2023-04-03T12:23:06.262Z,93832.81
2023-04-03T12:25:28.304Z,93826.19
2023-04-03T12:27:31.377Z,93825.56
2023-04-03T12:29:36.395Z,93829.84
2023-04-03T12:31:41.601Z,93828.22
2023-04-03T12:33:57.806Z,93826.22
2023-04-03T12:36:04.136Z,93816.25
2023-04-03T12:38:05.643Z,93813.59
2023-04-03T12:40:07.498Z,93817.28
2023-04-03T12:42:11.694Z,93813.97
2023-04-03T12:44:33.595Z,93809.94
2023-04-03T12:46:38.525Z,93803.44
2023-04-03T12:48:46.598Z,93802.56
2023-04-03T12:50:48.233Z,93797.84
2023-04-03T12:52:51.522Z,93790.63
2023-04-03T12:54:53.556Z,93781.28
2023-04-03T12:57:14.399Z,93787.63
2023-04-03T12:59:18.083Z,93786.09
2023-04-03T13:01:24.465Z,93788.25
2023-04-03T13:03:28.016Z,93788.25
2023-04-03T13:05:29.878Z,93789.22
2023-04-03T13:07:34.461Z,93791.66
2023-04-03T13:09:36.172Z,93784.94
2023-04-03T13:11:38.720Z,93781.91
2023-04-03T13:13:40.499Z,93781.06
2023-04-03T13:15:46.367Z,93779.00
2023-04-03T13:17:51.124Z,93783.16
2023-04-03T13:19:53.307Z,93789.44
2023-04-03T13:21:59.566Z,93790.88
2023-04-03T13:24:14.148Z,93778.75
2023-04-03T13:26:17.843Z,93775.22
2023-04-03T13:28:21.807Z,93774.22
2023-04-03T13:30:33.726Z,93774.22
2023-04-03T13:32:35.537Z,93774.03
2023-04-03T13:34:40.007Z,93771.66
2023-04-03T13:36:43.225Z,93777.03
2023-04-03T13:38:44.717Z,93773.06
2023-04-03T13:40:53.694Z,93781.34
2023-04-03T13:43:06.218Z,93773.31
2023-04-03T13:45:16.913Z,93771.31
2023-04-03T13:47:20.026Z,93781.34
2023-04-03T13:49:21.474Z,93771.63
2023-04-03T13:51:24.792Z,93763.31
2023-04-03T13:53:26.567Z,93762.06
2023-04-03T13:55:32.606Z,93759.69
2023-04-03T13:57:34.647Z,93759.81
2023-04-03T13:59:36.639Z,93753.19
2023-04-03T14:01:43.214Z,93757.44
2023-04-03T14:03:58.059Z,93760.88
2023-04-03T14:05:59.819Z,93762.06
2023-04-03T14:08:03.074Z,93757.63
2023-04-03T14:10:04.766Z,93751.66
2023-04-03T14:12:08.532Z,93756.19
2023-04-03T14:14:15.521Z,93759.34
2023-04-03T14:16:22.001Z,93752.38
2023-04-03T14:18:23.656Z,93755.78
2023-04-03T14:20:26.797Z,93751.09
2023-04-03T14:22:30.311Z,93754.09
2023-04-03T14:24:31.811Z,93756.44
2023-04-03T14:26:33.237Z,93749.59
2023-04-03T14:28:34.826Z,93745.22
2023-04-03T14:30:38.211Z,93742.06
2023-04-03T14:32:39.984Z,93740.06
2023-04-03T14:34:41.936Z,93747.75
2023-04-03T14:36:44.121Z,93743.31
2023-04-03T14:38:45.854Z,93745.50
2023-04-03T14:40:47.432Z,93745.13
2023-04-03T14:42:49.915Z,93744.44
2023-04-03T14:44:53.786Z,93743.53
2023-04-03T14:46:57.051Z,93732.69
2023-04-03T14:48:59.291Z,93735.94
2023-04-03T14:51:05.564Z,93727.84
2023-04-03T14:53:07.784Z,93729.25
2023-04-03T14:55:09.561Z,93734.97
2023-04-03T14:57:11.135Z,93731.28
2023-04-03T14:59:13.509Z,93730.47
2023-04-03T15:01:15.314Z,93723.25
2023-04-03T15:03:21.116Z,93723.25
2023-04-03T15:05:22.963Z,93724.50
2023-04-03T15:07:25.564Z,93721.59
2023-04-03T15:09:28.167Z,93725.94
2023-04-03T15:11:29.922Z,93725.94
2023-04-03T15:13:31.459Z,93718.56
2023-04-03T15:15:33.028Z,93723.44
2023-04-03T15:17:34.672Z,93716.47
2023-04-03T15:19:39.896Z,93708.88
2023-04-03T15:21:41.431Z,93700.72
2023-04-03T15:23:43.864Z,93699.91
2023-04-03T15:25:49.146Z,93702.72
2023-04-03T15:27:50.804Z,93705.16
2023-04-03T15:29:52.314Z,93698.75
2023-04-03T15:31:54.688Z,93700.09
2023-04-03T15:33:56.251Z,93707.78
2023-04-03T15:36:06.649Z,93692.69
2023-04-03T15:38:09.475Z,93696.31
2023-04-03T15:40:11.211Z,93692.16
2023-04-03T15:42:13.748Z,93696.84
2023-04-03T15:44:18.601Z,93689.81
2023-04-03T15:46:20.399Z,93685.75
2023-04-03T15:48:21.936Z,93679.28
2023-04-03T15:50:25.096Z,93680.09
2023-04-03T15:52:26.535Z,93675.91
2023-04-03T15:54:30.531Z,93682.22
2023-04-03T15:56:32.126Z,93681.41
2023-04-03T15:58:33.712Z,93665.25
2023-04-03T16:00:35.483Z,93674.22
2023-04-03T16:02:37.217Z,93667.97
2023-04-03T16:04:38.782Z,93664.72
2023-04-03T16:06:40.269Z,93661.56
2023-04-03T16:08:41.938Z,93659.31
2023-04-03T16:10:43.533Z,93669.47
2023-04-03T16:12:45.292Z,93664.00
2023-04-03T16:14:46.819Z,93659.97
2023-04-03T16:16:48.331Z,93655.91
2023-04-03T16:18:49.843Z,93656.09
2023-04-03T16:20:51.515Z,93659.69
2023-04-03T16:22:53.041Z,93648.06
2023-04-03T16:24:54.804Z,93644.16
2023-04-03T16:26:56.747Z,93643.00
2023-04-03T16:28:58.254Z,93650.69
2023-04-03T16:31:00.827Z,93649.66
2023-04-03T16:33:02.601Z,93646.25
2023-04-03T16:35:04.274Z,93640.91
2023-04-03T16:37:05.892Z,93622.03
2023-04-03T16:39:07.518Z,93620.03
2023-04-03T16:41:09.084Z,93611.81
2023-04-03T16:43:11.369Z,93600.97
2023-04-03T16:45:12.871Z,93593.41
2023-04-03T16:47:15.083Z,93580.44
2023-04-03T16:49:16.664Z,93583.31
2023-04-03T16:51:18.148Z,93567.38
2023-04-03T16:53:20.026Z,93561.22
2023-04-03T16:55:21.903Z,93556.81
2023-04-03T16:57:25.688Z,93554.38
2023-04-03T16:59:27.302Z,93552.56
2023-04-03T17:01:28.941Z,93547.97
2023-04-03T17:03:30.552Z,93546.34
2023-04-03T17:05:32.106Z,93544.72
2023-04-03T17:07:34.560Z,93541.84
2023-04-03T17:09:36.208Z,93543.03
2023-04-03T17:11:39.075Z,93537.34
2023-04-03T17:13:40.785Z,93538.78
2023-04-03T17:15:42.639Z,93542.84
2023-04-03T17:17:44.258Z,93538.06
2023-04-03T17:19:45.858Z,93535.06
2023-04-03T17:21:47.459Z,93535.88
2023-04-03T17:23:50.469Z,93528.66
2023-04-03T17:25:52.002Z,93539.13
2023-04-03T17:27:53.549Z,93531.28
2023-04-03T17:29:55.052Z,93526.22
2023-04-03T17:31:56.571Z,93538.31
2023-04-03T17:33:58.220Z,93538.75
2023-04-03T17:36:04.409Z,93532.50
2023-04-03T17:38:05.897Z,93526.22
2023-04-03T17:40:07.838Z,93527.41
2023-04-03T17:42:09.426Z,93516.03
2023-04-03T17:44:11.099Z,93517.59
2023-04-03T17:46:12.890Z,93516.44
2023-04-03T17:48:14.534Z,93517.06
2023-04-03T17:50:16.355Z,93521.91
2023-04-03T17:52:17.911Z,93524.53
2023-04-03T17:54:19.453Z,93521.47
2023-04-03T17:56:24.520Z,93518.47
2023-04-03T17:58:26.261Z,93508.81
2023-04-03T18:00:27.786Z,93504.78
2023-04-03T18:02:30.224Z,93505.56
2023-04-03T18:04:32.095Z,93510.81
2023-04-03T18:06:36.861Z,93516.78
2023-04-03T18:08:39.520Z,93520.03
2023-04-03T18:10:41.664Z,93505.34
2023-04-03T18:12:43.206Z,93504.69
2023-04-03T18:14:44.782Z,93498.84
2023-04-03T18:16:46.308Z,93504.06
2023-04-03T18:18:50.636Z,93496.69
2023-04-03T18:20:55.968Z,93496.41
2023-04-03T18:22:57.437Z,93499.03
2023-04-03T18:24:58.920Z,93493.44
2023-04-03T18:27:01.186Z,93484.41
2023-04-03T18:29:03.333Z,93488.56
2023-04-03T18:31:04.825Z,93488.75
2023-04-03T18:33:06.615Z,93498.03
2023-04-03T18:35:09.372Z,93499.84
2023-04-03T18:37:11.312Z,93492.19
2023-04-03T18:39:13.158Z,93496.22
2023-04-03T18:41:14.815Z,93486.38
2023-04-03T18:43:16.334Z,93485.38
2023-04-03T18:45:18.573Z,93471.88
2023-04-03T18:47:20.090Z,93467.13
2023-04-03T18:49:21.556Z,93469.13
2023-04-03T18:51:23.072Z,93478.75
2023-04-03T18:53:24.544Z,93469.47
2023-04-03T18:55:26.042Z,93466.31
2023-04-03T18:57:27.658Z,93475.06
2023-04-03T18:59:29.161Z,93470.44
2023-04-03T19:01:31.047Z,93454.38
2023-04-03T19:03:32.918Z,93454.19
2023-04-03T19:05:34.525Z,93447.78
2023-04-03T19:07:36.189Z,93452.44
2023-04-03T19:09:38.643Z,93443.97
2023-04-03T19:11:40.396Z,93443.97
2023-04-03T19:13:51.866Z,93424.59
2023-04-03T19:16:03.467Z,93419.34
2023-04-03T19:18:04.975Z,93418.13
2023-04-03T19:20:07.418Z,93425.09
2023-04-03T19:22:09.024Z,93420.28
2023-04-03T19:24:11.422Z,93424.16
2023-04-03T19:26:13.362Z,93430.19
2023-04-03T19:28:14.969Z,93424.22
2023-04-03T19:30:16.491Z,93422.25
2023-04-03T19:32:18.052Z,93426.66
2023-04-03T19:34:19.649Z,93422.59
2023-04-03T19:36:21.685Z,93431.44
2023-04-03T19:38:23.268Z,93431.44
2023-04-03T19:40:25.591Z,93418.53
2023-04-03T19:42:31.415Z,93411.88
2023-04-03T19:44:33.426Z,93398.00
2023-04-03T19:46:35.061Z,93395.13
2023-04-03T19:48:36.861Z,93400.19
2023-04-03T19:50:38.506Z,93399.19
2023-04-03T19:52:40.553Z,93395.69
2023-04-03T19:54:42.030Z,93394.44
2023-04-03T19:56:43.513Z,93390.22
2023-04-03T19:58:45.713Z,93387.84
2023-04-03T20:00:47.374Z,93398.31
2023-04-03T20:02:48.887Z,93397.69
2023-04-03T20:04:51.156Z,93397.06
2023-04-03T20:06:53.376Z,93395.69
2023-04-03T20:08:55.047Z,93393.75
2023-04-03T20:10:57.168Z,93393.00
2023-04-03T20:12:58.669Z,93391.81
2023-04-03T20:15:07.502Z,93396.25
2023-04-03T20:17:09.143Z,93395.28
2023-04-03T20:19:11.003Z,93406.25
2023-04-03T20:21:13.392Z,93402.53
2023-04-03T20:23:15.473Z,93396.06
2023-04-03T20:25:23.981Z,93393.06
2023-04-03T20:27:39.673Z,93391.06
2023-04-03T20:29:41.229Z,93387.88
2023-04-03T20:31:42.717Z,93390.09
2023-04-03T20:33:44.971Z,93376.38
2023-04-03T20:35:48.111Z,93382.16
2023-04-03T20:37:49.572Z,93372.19
2023-04-03T20:39:51.135Z,93383.22
2023-04-03T20:41:52.685Z,93379.47
2023-04-03T20:43:54.243Z,93395.31
2023-04-03T20:45:55.889Z,93389.47
2023-04-03T20:47:57.836Z,93387.84
2023-04-03T20:50:00.092Z,93390.34
2023-04-03T20:52:01.619Z,93383.66
2023-04-03T20:54:03.170Z,93389.06
2023-04-03T20:56:05.283Z,93387.28
2023-04-03T20:58:06.776Z,93396.63
2023-04-03T21:00:08.609Z,93403.13
2023-04-03T21:02:11.475Z,93403.94
2023-04-03T21:04:15.913Z,93404.91
2023-04-03T21:06:36.438Z,93390.78
2023-04-03T21:08:57.586Z,93399.34
2023-04-03T21:11:17.614Z,93404.81
2023-04-03T21:13:37.779Z,93398.53
2023-04-03T21:16:00.087Z,93395.00
2023-04-03T21:18:09.122Z,93381.94
2023-04-03T21:20:13.752Z,93366.88
2023-04-03T21:22:16.388Z,93365.13
2023-04-03T21:24:18.360Z,93364.75
2023-04-03T21:26:21.700Z,93360.84
2023-04-03T21:28:24.860Z,93350.41
2023-04-03T21:30:26.479Z,93339.94
2023-04-03T21:32:27.959Z,93338.50
2023-04-03T21:34:29.922Z,93332.66
2023-04-03T21:36:39.692Z,93331.41
2023-04-03T21:38:41.265Z,93314.53
2023-04-03T21:40:46.699Z,93315.78
2023-04-03T21:42:53.242Z,93313.34
2023-04-03T21:44:54.794Z,93297.44
2023-04-03T21:46:56.423Z,93292.75
2023-04-03T21:48:57.969Z,93297.94
2023-04-03T21:51:02.826Z,93296.81
2023-04-03T21:53:04.310Z,93305.34
2023-04-03T21:55:05.994Z,93304.78
2023-04-03T21:57:11.716Z,93296.69
2023-04-03T21:59:13.709Z,93290.88
2023-04-03T22:01:16.087Z,93293.72
2023-04-03T22:03:24.371Z,93280.34
2023-04-03T22:05:26.639Z,93278.72
2023-04-03T22:07:28.113Z,93279.47
2023-04-03T22:09:29.590Z,93275.28
2023-04-03T22:11:31.254Z,93280.84
2023-04-03T22:13:33.183Z,93285.06
2023-04-03T22:15:43.777Z,93285.47
2023-04-03T22:17:45.287Z,93283.34
2023-04-03T22:19:47.023Z,93282.66
2023-04-03T22:21:48.635Z,93277.66
2023-04-03T22:23:50.196Z,93274.13
2023-04-03T22:25:59.353Z,93272.81
2023-04-03T22:28:01.268Z,93284.28
2023-04-03T22:30:02.774Z,93278.09
2023-04-03T22:32:04.366Z,93265.31
2023-04-03T22:34:06.056Z,93259.97
2023-04-03T22:36:08.410Z,93263.03
2023-04-03T22:38:10.012Z,93260.97
2023-04-03T22:40:12.473Z,93248.19
2023-04-03T22:42:13.994Z,93238.44
2023-04-03T22:44:17.901Z,93220.34
2023-04-03T22:46:20.178Z,93212.50
2023-04-03T22:48:21.948Z,93231.34
2023-04-03T22:50:23.445Z,93250.03
2023-04-03T22:52:24.914Z,93251.78
2023-04-03T22:54:26.435Z,93235.00
2023-04-03T22:56:27.894Z,93242.09
2023-04-03T22:58:29.746Z,93235.75
2023-04-03T23:00:31.429Z,93243.63
2023-04-03T23:02:32.941Z,93230.50
2023-04-03T23:04:34.517Z,93231.41
2023-04-03T23:06:36.110Z,93233.56
2023-04-03T23:08:41.092Z,93239.50
2023-04-03T23:10:42.735Z,93241.13
2023-04-03T23:12:44.139Z,93230.59
2023-04-03T23:14:45.590Z,93251.56
2023-04-03T23:16:47.089Z,93235.03
2023-04-03T23:18:50.051Z,93233.13
2023-04-03T23:20:55.151Z,93232.50
2023-04-03T23:22:56.892Z,93231.63
2023-04-03T23:24:58.382Z,93232.03
2023-04-03T23:26:59.888Z,93238.97
2023-04-03T23:29:01.531Z,93226.47
2023-04-03T23:31:06.076Z,93224.13
2023-04-03T23:33:07.541Z,93220.47
2023-04-03T23:35:09.275Z,93218.72
2023-04-03T23:37:13.678Z,93222.81
2023-04-03T23:39:15.460Z,93225.34
2023-04-03T23:41:17.336Z,93235.84
2023-04-03T23:43:18.867Z,93216.53
2023-04-03T23:45:20.349Z,93207.38
2023-04-03T23:47:21.961Z,93198.66
2023-04-03T23:49:23.510Z,93193.97
2023-04-03T23:51:24.990Z,93194.88
2023-04-03T23:53:26.597Z,93196.47
2023-04-03T23:55:28.190Z,93196.47
2023-04-03T23:57:29.663Z,93205.63
2023-04-03T23:59:31.314Z,93207.25
